Los Coyotes (210) Station Data

Red Flag Warning: No
Fire Weather Zone: 258
SDGE Region: Ramona
Lat/Lon: 33.258/-116.585

Observations

Time Wind Speed/Gust Temp(F) RH Fuel Moist Fuel Temp(F) Dewpt(F) Tmax(F) Tmin(F) Accum Precip 10-min Precip SL Press(mb)
4/26 2:50am 41 2 G 3 49° 60% - - 36° 50.6° 47.3° - - -
4/26 2:40am 343 1 G 2 49° 61% - - 36° 50.6° 47.3° - - -
4/26 2:30am 3 2 G 5 50° 59% - - 36° 50.6° 47.3° - - -
4/26 2:20am 6 2 G 4 50° 58% - - 36° 50.6° 47.3° - - -
4/26 2:10am 81 2 G 5 48° 64% - - 36° 50.5° 47.3° - - -
4/26 2:00am 359 4 G 6 48° 63% - - 37° 50.5° 47.5° - - -
4/26 1:50am 43 1 G 3 48° 64% - - 37° 50.5° 47.5° - - -
4/26 1:40am 359 3 G 5 49° 64% - - 37° 50.5° 47.5° - - -
4/26 1:30am 56 2 G 4 50° 63% - - 37° 50.5° 47.5° - - -
4/26 1:20am 31 1 G 4 50° 62% - - 37° 50.5° 47.5° - - -
4/26 1:10am 8 2 G 5 49° 64% - - 38° 49.9° 47.5° - - -
4/26 1:00am 4 4 G 6 49° 66% - - 38° 49.8° 47.5° - - -
4/26 12:50am 40 2 G 3 49° 67% - - 39° 49.8° 47.5° - - -
4/26 12:40am 22 2 G 4 49° 68% - - 39° 49.8° 47.5° - - -
4/26 12:30am 32 2 G 5 48° 70% - - 39° 49.8° 47.5° - - -
4/26 12:20am 51 1 G 4 48° 71% - - 39° 49.8° 47.5° - - -
4/26 12:10am 28 2 G 3 49° 68% - - 39° 49.8° 49° - - -
4/26 12:00am 2 3 G 4 49° 70% - - 39° 61.2° 44.8° - - -
4/25 11:50pm 50 4 G 7 49° 72% - - 40° 61.2° 44.8° - - -
4/25 11:40pm 99 2 G 5 49° 72% - - 41° 61.2° 44.8° - - -
4/25 11:30pm 47 1 G 1 50° 71% - - 41° 61.2° 44.8° - - -
4/25 11:20pm 44 2 G 5 49° 72% - - 41° 61.2° 44.8° - - -
4/25 11:10pm 37 2 G 5 49° 75% - - 41° 61.2° 44.8° - - -
4/25 11:00pm 86 1 G 2 50° 72% - - 41° 61.2° 44.8° - - -
4/25 10:50pm 36 1 G 2 49° 77% - - 42° 61.2° 44.8° - - -
4/25 10:40pm 77 2 G 3 50° 75% - - 42° 61.2° 44.8° - - -
4/25 10:30pm 90 2 G 5 50° 78% - - 43° 61.2° 44.8° - - -
4/25 10:20pm 65 1 G 4 48° 87% - - 45° 61.2° 44.8° - - -
4/25 10:10pm 63 4 G 7 48° 89% - - 45° 61.2° 44.8° - - -
4/25 10:00pm 95 4 G 6 49° 93% - - 46° 61.2° 44.8° - - -
4/25 9:50pm 210 2 G 5 49° 93% - - 47° 61.2° 44.8° - - -
4/25 9:40pm 192 2 G 4 49° 93% - - 47° 61.2° 44.8° - - -
4/25 9:30pm 155 2 G 4 49° 93% - - 47° 61.2° 44.8° - - -
4/25 9:20pm 209 2 G 5 49° 92% - - 46° 61.2° 44.8° - - -
4/25 9:10pm 238 3 G 6 49° 91% - - 46° 61.2° 44.8° - - -
4/25 9:00pm 248 4 G 8 49° 89% - - 46° 61.2° 44.8° - - -
4/25 8:50pm 252 5 G 9 49° 88% - - 46° 61.2° 44.8° - - -
4/25 8:40pm 266 4 G 6 49° 87% - - 45° 61.2° 44.8° - - -
4/25 8:30pm 236 3 G 6 49° 85% - - 45° 61.2° 44.8° - - -
4/25 8:20pm 238 3 G 6 50° 83% - - 45° 61.2° 44.8° - - -
4/25 8:10pm 265 4 G 6 50° 83% - - 45° 61.2° 44.8° - - -
4/25 8:00pm 271 4 G 7 50° 84% - - 46° 61.2° 44.8° - - -
4/25 7:50pm 289 4 G 8 51° 84% - - 46° 61.2° 44.8° - - -
4/25 7:40pm 285 4 G 7 51° 82% - - 46° 61.2° 44.8° - - -
4/25 7:30pm 288 3 G 7 51° 81% - - 46° 61.2° 44.8° - - -
4/25 7:20pm 283 6 G 11 52° 80% - - 46° 61.2° 44.8° - - -
4/25 7:10pm 264 5 G 10 52° 78% - - 46° 61.2° 44.8° - - -
4/25 7:00pm 255 6 G 12 53° 77% - - 46° 61.2° 44.8° - - -
4/25 6:50pm 259 7 G 14 54° 75% - - 46° 61.2° 44.8° - - -
4/25 6:40pm 248 6 G 14 54° 74% - - 46° 61.2° 44.8° - - -
4/25 6:30pm 254 8 G 15 54° 74% - - 46° 61.2° 44.8° - - -
4/25 6:20pm 250 7 G 16 54° 74% - - 46° 61.2° 44.8° - - -
4/25 6:10pm 254 6 G 11 55° 73% - - 46° 61.2° 44.8° - - -
4/25 6:00pm 252 8 G 15 54° 73% - - 46° 61.2° 44.8° - - -
4/25 5:50pm 252 8 G 14 55° 73% - - 46° 61.2° 44.8° - - -
4/25 5:40pm 251 9 G 16 55° 72% - - 46° 61.2° 44.8° - - -
4/25 5:30pm 254 9 G 17 55° 70% - - 46° 61.2° 44.8° - - -
4/25 5:20pm 255 9 G 17 55° 70% - - 46° 61.2° 44.8° - - -
4/25 5:10pm 257 10 G 18 56° 69% - - 46° 61.2° 44.8° - - -
4/25 5:00pm 248 7 G 14 56° 68% - - 46° 61.2° 44.8° - - -
4/25 4:50pm 254 8 G 16 56° 67% - - 46° 61.2° 44.8° - - -
4/25 4:40pm 255 9 G 17 57° 65% - - 45° 61.2° 44.8° - - -
4/25 4:30pm 254 8 G 18 57° 65% - - 46° 61.2° 44.8° - - -
4/25 4:20pm 255 10 G 18 57° 66% - - 46° 61.2° 44.8° - - -
4/25 4:10pm 249 9 G 18 57° 67% - - 46° 61.2° 44.8° - - -
4/25 4:00pm 251 8 G 18 58° 66% - - 46° 61.2° 44.8° - - -
4/25 3:50pm 262 11 G 19 57° 65% - - 45° 61.2° 44.8° - - -
4/25 3:40pm 251 8 G 17 57° 67% - - 46° 61.2° 44.8° - - -
4/25 3:30pm 252 8 G 17 57° 66% - - 46° 61.2° 44.8° - - -
4/25 3:20pm 254 10 G 18 57° 65% - - 45° 61.2° 44.8° - - -
4/25 3:10pm 256 10 G 20 57° 65% - - 45° 61.2° 44.8° - - -
4/25 3:00pm 254 10 G 19 57° 63% - - 45° 61.2° 44.8° - - -
4/25 2:50pm 256 9 G 18 59° 57% - - 44° 61.2° 44.8° - - -
4/25 2:40pm 265 11 G 17 60° 46% - - 39° 61.2° 44.8° - - -
4/25 2:30pm 256 9 G 17 60° 43% - - 37° 61.2° 44.8° - - -
4/25 2:20pm 273 10 G 18 60° 43% - - 37° 61.2° 44.8° - - -
4/25 2:10pm 269 11 G 20 60° 39% - - 35° 61.2° 44.8° - - -
4/25 2:00pm 266 12 G 19 60° 42% - - 37° 60.6° 44.8° - - -
4/25 1:50pm 275 10 G 17 60° 45% - - 38° 60.6° 44.8° - - -
4/25 1:40pm 262 11 G 24 58° 53% - - 41° 59.4° 44.8° - - -
4/25 1:30pm 261 10 G 21 58° 55% - - 42° 59.4° 44.8° - - -
4/25 1:20pm 259 10 G 20 58° 55% - - 42° 59.4° 44.8° - - -
4/25 1:10pm 253 10 G 18 58° 55% - - 42° 59.4° 44.8° - - -
4/25 1:00pm 252 9 G 19 58° 53% - - 41° 59.4° 44.8° - - -
4/25 12:50pm 262 10 G 21 57° 56% - - 42° 58.2° 44.8° - - -
4/25 12:40pm 269 12 G 23 57° 55% - - 41° 57.8° 44.8° - - -
4/25 12:30pm 267 9 G 18 57° 56% - - 41° 57.7° 44.8° - - -
4/25 12:20pm 266 11 G 20 56° 58% - - 41° 57.2° 44.8° - - -
4/25 12:10pm 247 9 G 19 56° 57% - - 41° 57.2° 44.8° - - -
4/25 12:00pm 243 8 G 16 56° 59% - - 42° 57.2° 44.8° - - -
4/25 11:50am 255 11 G 19 55° 63% - - 42° 55.2° 44.8° - - -
4/25 11:40am 249 9 G 18 54° 64% - - 42° 54.9° 44.8° - - -
4/25 11:30am 255 10 G 18 54° 65% - - 42° 54.9° 44.8° - - -
4/25 11:20am 256 9 G 18 54° 65% - - 42° 54.9° 44.8° - - -
4/25 11:10am 238 8 G 17 54° 65% - - 43° 54.9° 44.8° - - -
4/25 11:00am 247 7 G 15 54° 64% - - 42° 54.9° 44.8° - - -
4/25 10:50am 261 11 G 18 53° 67% - - 42° 53.7° 44.8° - - -
4/25 10:40am 261 10 G 18 53° 67% - - 43° 53.7° 44.8° - - -
4/25 10:30am 250 8 G 17 52° 70% - - 43° 52.7° 44.8° - - -
4/25 10:20am 257 11 G 20 51° 72% - - 42° 52.5° 44.8° - - -
4/25 10:10am 260 11 G 19 52° 71% - - 43° 52.5° 44.8° - - -
4/25 10:00am 263 10 G 21 51° 72% - - 43° 51.8° 44.8° - - -
4/25 9:50am 272 10 G 15 50° 74% - - 42° 51.5° 44.8° - - -
4/25 9:40am 262 10 G 17 50° 76% - - 43° 50.6° 44.8° - - -
4/25 9:30am 266 9 G 16 50° 77% - - 43° 50.2° 44.8° - - -
4/25 9:20am 261 10 G 19 49° 81% - - 43° 49.6° 44.8° - - -
4/25 9:10am 266 10 G 18 48° 85% - - 43° 48.1° 44.8° - - -
4/25 9:00am 275 10 G 17 47° 87% - - 44° 47.4° 44.8° - - -
4/25 8:50am 277 10 G 16 47° 94% - - 45° 47.3° 44.8° - - -
4/25 8:40am 277 10 G 17 47° 100% - - 47° 46.9° 44.8° - - -
4/25 8:30am 273 10 G 16 46° 100% - - 46° 46.6° 44.8° - - -
4/25 8:20am 278 11 G 17 46° 100% - - 46° 46.5° 44.8° - - -
4/25 8:10am 274 9 G 15 45° 100% - - 45° 46.5° 44.8° - - -
4/25 8:00am 276 10 G 19 45° 100% - - 45° 46.5° 44.8° - - -
4/25 7:50am 274 11 G 20 45° 100% - - 45° 46.5° 44.8° - - -
4/25 7:40am 280 10 G 16 45° 100% - - 45° 46.5° 44.8° - - -
4/25 7:30am 284 9 G 15 45° 100% - - 45° 46.5° 44.8° - - -
4/25 7:20am 283 10 G 16 45° 100% - - 45° 46.5° 44.8° - - -
4/25 7:10am 278 10 G 18 45° 100% - - 45° 46.5° 44.8° - - -
4/25 7:00am 279 10 G 16 45° 100% - - 45° 46.5° 44.8° - - -
4/25 6:50am 274 10 G 16 45° 100% - - 45° 46.5° 44.8° - - -
4/25 6:40am 279 8 G 16 45° 100% - - 45° 46.5° 44.8° - - -
4/25 6:30am 282 10 G 17 45° 100% - - 45° 46.5° 44.8° - - -
4/25 6:20am 269 12 G 20 45° 100% - - 45° 46.5° 44.8° - - -
4/25 6:10am 268 10 G 20 45° 100% - - 45° 46.5° 44.9° - - -
4/25 6:00am 265 11 G 20 45° 100% - - 45° 46.5° 44.9° - - -
4/25 5:50am 273 12 G 19 45° 100% - - 45° 46.5° 45° - - -
4/25 5:40am 272 10 G 17 45° 100% - - 45° 46.5° 45.1° - - -
4/25 5:30am 267 10 G 16 45° 100% - - 45° 46.5° 45.1° - - -
4/25 5:20am 271 11 G 18 45° 100% - - 45° 46.5° 45.1° - - -
4/25 5:10am 275 10 G 18 45° 100% - - 45° 46.5° 45.1° - - -
4/25 5:00am 272 10 G 17 45° 100% - - 45° 46.5° 45.1° - - -
4/25 4:50am 267 9 G 14 45° 100% - - 45° 46.5° 45.1° - - -
4/25 4:40am 268 9 G 16 45° 100% - - 45° 46.5° 45.1° - - -
4/25 4:30am 272 10 G 16 45° 100% - - 45° 46.5° 45.1° - - -
4/25 4:20am 265 12 G 20 45° 100% - - 45° 46.5° 45.1° - - -
4/25 4:10am 273 10 G 17 45° 100% - - 45° 46.5° 45.2° - - -
4/25 4:00am 267 11 G 20 45° 100% - - 45° 46.5° 45.2° - - -
4/25 3:50am 263 11 G 20 45° 100% - - 45° 46.5° 45.2° - - -
4/25 3:40am 261 11 G 21 45° 100% - - 45° 46.5° 45.2° - - -
4/25 3:30am 260 11 G 20 45° 100% - - 45° 46.5° 45.2° - - -
4/25 3:20am 260 12 G 18 45° 100% - - 45° 46.5° 45.2° - - -
4/25 3:10am 259 13 G 24 45° 100% - - 45° 46.5° 45.2° - - -
4/25 3:00am 259 13 G 21 46° 100% - - 46° 46.5° 45.2° - - -
4/25 2:50am 261 12 G 20 46° 100% - - 46° 46.5° 45.2° - - -
4/25 2:40am 262 12 G 21 46° 100% - - 46° 46.5° 45.2° - - -
4/25 2:30am 264 10 G 19 46° 100% - - 46° 46.5° 45.2° - - -
4/25 2:20am 269 10 G 18 46° 100% - - 46° 46.5° 45.2° - - -
4/25 2:10am 262 11 G 18 46° 100% - - 46° 46.5° 45.2° - - -
4/25 2:00am 264 9 G 15 46° 100% - - 46° 46.5° 45.2° - - -
4/25 1:50am 263 10 G 19 46° 100% - - 46° 46.5° 45.2° - - -
4/25 1:40am 261 9 G 17 46° 100% - - 46° 46.5° 45.3° - - -
4/25 1:30am 261 10 G 19 46° 100% - - 46° 46.5° 45.3° - - -
4/25 1:20am 260 10 G 16 46° 100% - - 46° 46.5° 45.3° - - -
4/25 1:10am 262 11 G 20 46° 100% - - 46° 46.5° 45.4° - - -
4/25 1:00am 262 10 G 17 46° 100% - - 46° 46.5° 45.7° - - -
4/25 12:50am 268 10 G 17 46° 100% - - 46° 46.5° 45.8° - - -
4/25 12:40am 260 10 G 17 46° 100% - - 46° 46.5° 45.9° - - -
4/25 12:30am 259 8 G 15 46° 100% - - 46° 46.5° 46° - - -
4/25 12:20am 260 10 G 17 46° 100% - - 46° 46.5° 46° - - -
4/25 12:10am 272 9 G 17 46° 100% - - 46° 46.4° 46° - - -
4/25 12:00am 269 8 G 14 46° 100% - - 46° 63.2° 45° - - -
4/24 11:50pm 264 9 G 19 47° 100% - - 47° 63.2° 45° - - -
4/24 11:40pm 262 11 G 21 47° 100% - - 47° 63.2° 45° - - -
4/24 11:30pm 267 11 G 22 47° 100% - - 47° 63.2° 45° - - -
4/24 11:20pm 268 11 G 20 47° 100% - - 47° 63.2° 45° - - -
4/24 11:10pm 263 11 G 19 47° 100% - - 47° 63.2° 45° - - -
4/24 11:00pm 262 10 G 17 47° 100% - - 47° 63.2° 45° - - -
4/24 10:50pm 261 9 G 18 47° 100% - - 47° 63.2° 45° - - -
4/24 10:40pm 264 8 G 14 47° 100% - - 47° 63.2° 45° - - -
4/24 10:30pm 267 8 G 14 47° 100% - - 47° 63.2° 45° - - -
4/24 10:20pm 274 8 G 14 47° 98% - - 47° 63.2° 45° - - -
4/24 10:10pm 273 8 G 14 47° 95% - - 46° 63.2° 45° - - -
4/24 10:00pm 273 7 G 12 47° 94% - - 46° 63.2° 45° - - -
4/24 9:50pm 270 7 G 15 47° 96% - - 46° 63.2° 45° - - -
4/24 9:40pm 265 7 G 11 47° 96% - - 47° 63.2° 45° - - -
4/24 9:30pm 268 8 G 15 48° 91% - - 45° 63.2° 45° - - -
4/24 9:20pm 269 7 G 13 48° 88% - - 45° 63.2° 45° - - -
4/24 9:10pm 269 6 G 13 48° 87% - - 44° 63.2° 45° - - -
4/24 9:00pm 271 6 G 12 48° 87% - - 44° 63.2° 45° - - -
4/24 8:50pm 275 8 G 14 48° 87% - - 45° 63.2° 45° - - -
4/24 8:40pm 274 8 G 16 49° 88% - - 45° 63.2° 45° - - -
4/24 8:30pm 274 8 G 14 49° 87% - - 45° 63.2° 45° - - -
4/24 8:20pm 272 9 G 15 49° 86% - - 45° 63.2° 45° - - -
4/24 8:10pm 267 8 G 15 49° 86% - - 45° 63.2° 45° - - -
4/24 8:00pm 263 8 G 16 50° 85% - - 45° 63.2° 45° - - -
4/24 7:50pm 262 8 G 15 50° 84% - - 45° 63.2° 45° - - -
4/24 7:40pm 261 8 G 15 50° 84% - - 45° 63.2° 45° - - -
4/24 7:30pm 263 9 G 17 51° 83% - - 46° 63.2° 45° - - -
4/24 7:20pm 259 10 G 18 51° 82% - - 46° 63.2° 45° - - -
4/24 7:10pm 257 9 G 16 51° 79% - - 45° 63.2° 45° - - -
4/24 7:00pm 261 9 G 20 52° 79% - - 45° 63.2° 45° - - -
4/24 6:50pm 257 9 G 17 52° 77% - - 45° 63.2° 45° - - -
4/24 6:40pm 255 9 G 16 52° 76% - - 45° 63.2° 45° - - -
4/24 6:30pm 255 10 G 22 53° 74% - - 45° 63.2° 45° - - -
4/24 6:20pm 248 9 G 18 54° 73% - - 45° 63.2° 45° - - -
4/24 6:10pm 250 9 G 18 54° 72% - - 45° 63.2° 45° - - -
4/24 6:00pm 253 9 G 18 55° 71% - - 45° 63.2° 45° - - -